sensor_id;sensor_type;location;lat;lon;timestamp;P1;durP1;ratioP1;P2;durP2;ratioP2
12425;SDS011;6277;49.824;9.562;2022-12-10T00:00:34;8.88;;;5.80;;
12425;SDS011;6277;49.824;9.562;2022-12-10T00:03:00;8.77;;;6.35;;
12425;SDS011;6277;49.824;9.562;2022-12-10T00:05:26;8.57;;;6.28;;
12425;SDS011;6277;49.824;9.562;2022-12-10T00:07:52;7.90;;;5.75;;
12425;SDS011;6277;49.824;9.562;2022-12-10T00:10:17;8.20;;;6.20;;
12425;SDS011;6277;49.824;9.562;2022-12-10T00:12:43;8.48;;;6.03;;
12425;SDS011;6277;49.824;9.562;2022-12-10T00:15:09;7.47;;;5.57;;
12425;SDS011;6277;49.824;9.562;2022-12-10T00:17:35;9.07;;;6.65;;
12425;SDS011;6277;49.824;9.562;2022-12-10T00:20:01;7.97;;;5.82;;
12425;SDS011;6277;49.824;9.562;2022-12-10T00:22:26;8.80;;;6.35;;
12425;SDS011;6277;49.824;9.562;2022-12-10T00:24:52;6.45;;;5.07;;
12425;SDS011;6277;49.824;9.562;2022-12-10T00:27:17;8.05;;;5.68;;
12425;SDS011;6277;49.824;9.562;2022-12-10T00:29:43;8.18;;;5.90;;
12425;SDS011;6277;49.824;9.562;2022-12-10T00:32:09;7.35;;;5.80;;
12425;SDS011;6277;49.824;9.562;2022-12-10T00:34:34;8.15;;;5.72;;
12425;SDS011;6277;49.824;9.562;2022-12-10T00:37:00;9.00;;;6.43;;
12425;SDS011;6277;49.824;9.562;2022-12-10T00:39:25;9.98;;;6.15;;
12425;SDS011;6277;49.824;9.562;2022-12-10T00:41:51;7.55;;;5.75;;
12425;SDS011;6277;49.824;9.562;2022-12-10T00:44:17;8.57;;;6.22;;
12425;SDS011;6277;49.824;9.562;2022-12-10T00:46:43;9.05;;;6.10;;
12425;SDS011;6277;49.824;9.562;2022-12-10T00:49:09;7.63;;;6.05;;
12425;SDS011;6277;49.824;9.562;2022-12-10T00:51:35;7.63;;;5.55;;
12425;SDS011;6277;49.824;9.562;2022-12-10T00:54:01;9.35;;;6.13;;
12425;SDS011;6277;49.824;9.562;2022-12-10T00:56:28;7.75;;;5.53;;
12425;SDS011;6277;49.824;9.562;2022-12-10T00:58:57;9.30;;;6.20;;
12425;SDS011;6277;49.824;9.562;2022-12-10T01:01:29;10.07;;;6.43;;
12425;SDS011;6277;49.824;9.562;2022-12-10T01:03:57;7.72;;;6.18;;
12425;SDS011;6277;49.824;9.562;2022-12-10T01:06:26;8.82;;;5.93;;
12425;SDS011;6277;49.824;9.562;2022-12-10T01:08:56;8.23;;;5.63;;
12425;SDS011;6277;49.824;9.562;2022-12-10T01:11:25;7.82;;;6.05;;
12425;SDS011;6277;49.824;9.562;2022-12-10T01:13:53;8.93;;;5.70;;
12425;SDS011;6277;49.824;9.562;2022-12-10T01:16:20;9.23;;;6.25;;
12425;SDS011;6277;49.824;9.562;2022-12-10T01:18:47;8.70;;;6.53;;
12425;SDS011;6277;49.824;9.562;2022-12-10T01:21:14;8.35;;;5.53;;
12425;SDS011;6277;49.824;9.562;2022-12-10T01:23:42;6.68;;;5.25;;
12425;SDS011;6277;49.824;9.562;2022-12-10T01:26:10;7.47;;;5.97;;
12425;SDS011;6277;49.824;9.562;2022-12-10T01:28:39;8.10;;;5.80;;
12425;SDS011;6277;49.824;9.562;2022-12-10T01:31:06;8.02;;;5.55;;
12425;SDS011;6277;49.824;9.562;2022-12-10T01:33:34;7.70;;;5.28;;
12425;SDS011;6277;49.824;9.562;2022-12-10T01:36:04;7.78;;;5.07;;
12425;SDS011;6277;49.824;9.562;2022-12-10T01:38:32;8.75;;;5.55;;
12425;SDS011;6277;49.824;9.562;2022-12-10T01:40:58;7.07;;;4.97;;
12425;SDS011;6277;49.824;9.562;2022-12-10T01:43:24;6.45;;;4.80;;
12425;SDS011;6277;49.824;9.562;2022-12-10T01:45:50;6.32;;;4.88;;
12425;SDS011;6277;49.824;9.562;2022-12-10T01:48:16;7.60;;;4.93;;
12425;SDS011;6277;49.824;9.562;2022-12-10T01:50:41;8.55;;;5.38;;
12425;SDS011;6277;49.824;9.562;2022-12-10T01:53:07;7.40;;;4.78;;
12425;SDS011;6277;49.824;9.562;2022-12-10T01:55:44;7.70;;;5.47;;
12425;SDS011;6277;49.824;9.562;2022-12-10T01:58:15;6.55;;;4.57;;
12425;SDS011;6277;49.824;9.562;2022-12-10T02:00:45;6.38;;;4.72;;
12425;SDS011;6277;49.824;9.562;2022-12-10T02:03:21;6.80;;;4.65;;
12425;SDS011;6277;49.824;9.562;2022-12-10T02:05:58;6.65;;;4.70;;
12425;SDS011;6277;49.824;9.562;2022-12-10T02:08:40;6.40;;;4.53;;
12425;SDS011;6277;49.824;9.562;2022-12-10T02:11:14;6.20;;;4.78;;
12425;SDS011;6277;49.824;9.562;2022-12-10T02:13:45;6.72;;;5.03;;
12425;SDS011;6277;49.824;9.562;2022-12-10T02:16:40;8.13;;;5.35;;
12425;SDS011;6277;49.824;9.562;2022-12-10T02:19:35;7.05;;;5.22;;
12425;SDS011;6277;49.824;9.562;2022-12-10T02:22:09;7.40;;;5.22;;
12425;SDS011;6277;49.824;9.562;2022-12-10T02:24:37;7.15;;;5.15;;
12425;SDS011;6277;49.824;9.562;2022-12-10T02:27:05;7.90;;;5.55;;
12425;SDS011;6277;49.824;9.562;2022-12-10T02:29:37;8.50;;;5.25;;
12425;SDS011;6277;49.824;9.562;2022-12-10T02:32:06;8.13;;;5.07;;
12425;SDS011;6277;49.824;9.562;2022-12-10T02:34:41;7.28;;;4.90;;
12425;SDS011;6277;49.824;9.562;2022-12-10T02:37:10;7.23;;;5.10;;
12425;SDS011;6277;49.824;9.562;2022-12-10T02:39:42;7.72;;;5.30;;
12425;SDS011;6277;49.824;9.562;2022-12-10T02:42:10;7.30;;;5.45;;
12425;SDS011;6277;49.824;9.562;2022-12-10T02:44:38;7.88;;;5.53;;
12425;SDS011;6277;49.824;9.562;2022-12-10T02:47:06;8.15;;;5.15;;
12425;SDS011;6277;49.824;9.562;2022-12-10T02:49:33;8.25;;;5.75;;
12425;SDS011;6277;49.824;9.562;2022-12-10T02:52:08;8.65;;;5.88;;
12425;SDS011;6277;49.824;9.562;2022-12-10T02:54:36;7.07;;;5.20;;
12425;SDS011;6277;49.824;9.562;2022-12-10T03:02:37;8.85;;;5.45;;
12425;SDS011;6277;49.824;9.562;2022-12-10T03:10:48;6.85;;;5.28;;
12425;SDS011;6277;49.824;9.562;2022-12-10T03:13:21;8.63;;;5.70;;
12425;SDS011;6277;49.824;9.562;2022-12-10T03:15:53;7.38;;;5.32;;
12425;SDS011;6277;49.824;9.562;2022-12-10T03:18:20;8.10;;;5.30;;
12425;SDS011;6277;49.824;9.562;2022-12-10T03:20:49;7.95;;;5.68;;
12425;SDS011;6277;49.824;9.562;2022-12-10T03:23:17;7.82;;;5.63;;
12425;SDS011;6277;49.824;9.562;2022-12-10T03:25:44;8.55;;;5.63;;
12425;SDS011;6277;49.824;9.562;2022-12-10T03:28:13;7.63;;;5.30;;
12425;SDS011;6277;49.824;9.562;2022-12-10T03:30:39;8.50;;;5.30;;
12425;SDS011;6277;49.824;9.562;2022-12-10T03:33:07;7.78;;;5.15;;
12425;SDS011;6277;49.824;9.562;2022-12-10T03:35:33;6.65;;;5.00;;
12425;SDS011;6277;49.824;9.562;2022-12-10T03:37:59;6.50;;;4.75;;
12425;SDS011;6277;49.824;9.562;2022-12-10T03:40:24;6.53;;;4.78;;
12425;SDS011;6277;49.824;9.562;2022-12-10T03:42:51;7.72;;;4.97;;
12425;SDS011;6277;49.824;9.562;2022-12-10T03:45:17;6.00;;;4.63;;
12425;SDS011;6277;49.824;9.562;2022-12-10T03:47:42;6.47;;;4.63;;
12425;SDS011;6277;49.824;9.562;2022-12-10T03:50:09;6.85;;;4.32;;
12425;SDS011;6277;49.824;9.562;2022-12-10T03:52:35;5.82;;;4.40;;
12425;SDS011;6277;49.824;9.562;2022-12-10T03:55:00;6.85;;;4.20;;
12425;SDS011;6277;49.824;9.562;2022-12-10T03:57:26;6.80;;;4.43;;
12425;SDS011;6277;49.824;9.562;2022-12-10T03:59:52;5.65;;;4.03;;
12425;SDS011;6277;49.824;9.562;2022-12-10T04:02:17;5.68;;;4.20;;
12425;SDS011;6277;49.824;9.562;2022-12-10T04:04:43;5.40;;;3.83;;
12425;SDS011;6277;49.824;9.562;2022-12-10T04:07:09;5.80;;;3.83;;
12425;SDS011;6277;49.824;9.562;2022-12-10T04:09:34;5.65;;;4.10;;
12425;SDS011;6277;49.824;9.562;2022-12-10T04:12:00;5.05;;;3.67;;
12425;SDS011;6277;49.824;9.562;2022-12-10T04:14:26;5.90;;;3.75;;
12425;SDS011;6277;49.824;9.562;2022-12-10T04:17:10;5.70;;;3.85;;
12425;SDS011;6277;49.824;9.562;2022-12-10T04:19:36;6.93;;;4.00;;
12425;SDS011;6277;49.824;9.562;2022-12-10T04:22:02;5.80;;;4.07;;
12425;SDS011;6277;49.824;9.562;2022-12-10T04:24:57;6.25;;;4.18;;
12425;SDS011;6277;49.824;9.562;2022-12-10T04:27:41;6.43;;;4.65;;
12425;SDS011;6277;49.824;9.562;2022-12-10T04:30:09;6.22;;;4.18;;
12425;SDS011;6277;49.824;9.562;2022-12-10T04:32:36;6.20;;;4.47;;
12425;SDS011;6277;49.824;9.562;2022-12-10T04:35:02;7.82;;;4.57;;
12425;SDS011;6277;49.824;9.562;2022-12-10T04:37:29;6.65;;;4.32;;
12425;SDS011;6277;49.824;9.562;2022-12-10T04:39:54;5.28;;;3.78;;
12425;SDS011;6277;49.824;9.562;2022-12-10T04:42:20;5.75;;;3.97;;
12425;SDS011;6277;49.824;9.562;2022-12-10T04:44:46;6.53;;;4.10;;
12425;SDS011;6277;49.824;9.562;2022-12-10T04:47:12;7.03;;;4.30;;
12425;SDS011;6277;49.824;9.562;2022-12-10T04:49:38;5.78;;;4.22;;
12425;SDS011;6277;49.824;9.562;2022-12-10T04:52:05;6.47;;;4.28;;
12425;SDS011;6277;49.824;9.562;2022-12-10T04:54:31;6.40;;;4.35;;
12425;SDS011;6277;49.824;9.562;2022-12-10T04:56:57;6.50;;;4.07;;
12425;SDS011;6277;49.824;9.562;2022-12-10T04:59:23;5.38;;;4.05;;
12425;SDS011;6277;49.824;9.562;2022-12-10T05:01:49;6.35;;;4.10;;
12425;SDS011;6277;49.824;9.562;2022-12-10T05:04:15;5.82;;;3.70;;
12425;SDS011;6277;49.824;9.562;2022-12-10T05:06:42;5.30;;;4.22;;
12425;SDS011;6277;49.824;9.562;2022-12-10T05:09:12;6.00;;;4.05;;
12425;SDS011;6277;49.824;9.562;2022-12-10T05:11:38;6.10;;;4.20;;
12425;SDS011;6277;49.824;9.562;2022-12-10T05:14:04;6.22;;;4.20;;
12425;SDS011;6277;49.824;9.562;2022-12-10T05:16:30;7.25;;;4.25;;
12425;SDS011;6277;49.824;9.562;2022-12-10T05:18:57;7.95;;;4.75;;
12425;SDS011;6277;49.824;9.562;2022-12-10T05:21:23;7.32;;;4.63;;
12425;SDS011;6277;49.824;9.562;2022-12-10T05:24:10;6.63;;;4.53;;
12425;SDS011;6277;49.824;9.562;2022-12-10T05:26:36;5.85;;;4.53;;
12425;SDS011;6277;49.824;9.562;2022-12-10T05:29:01;4.95;;;3.85;;
12425;SDS011;6277;49.824;9.562;2022-12-10T05:31:28;6.07;;;4.30;;
12425;SDS011;6277;49.824;9.562;2022-12-10T05:33:55;6.28;;;4.50;;
12425;SDS011;6277;49.824;9.562;2022-12-10T05:36:23;5.55;;;4.07;;
12425;SDS011;6277;49.824;9.562;2022-12-10T05:38:50;6.95;;;4.35;;
12425;SDS011;6277;49.824;9.562;2022-12-10T05:41:18;6.88;;;4.45;;
12425;SDS011;6277;49.824;9.562;2022-12-10T05:43:46;6.85;;;4.72;;
12425;SDS011;6277;49.824;9.562;2022-12-10T05:46:13;7.18;;;4.65;;
12425;SDS011;6277;49.824;9.562;2022-12-10T05:48:44;5.25;;;4.05;;
12425;SDS011;6277;49.824;9.562;2022-12-10T05:51:11;5.80;;;4.40;;
12425;SDS011;6277;49.824;9.562;2022-12-10T05:53:38;8.35;;;4.75;;
12425;SDS011;6277;49.824;9.562;2022-12-10T05:56:08;5.95;;;4.43;;
12425;SDS011;6277;49.824;9.562;2022-12-10T05:58:36;6.32;;;4.03;;
12425;SDS011;6277;49.824;9.562;2022-12-10T06:01:06;4.32;;;3.67;;
12425;SDS011;6277;49.824;9.562;2022-12-10T06:03:33;6.70;;;4.30;;
12425;SDS011;6277;49.824;9.562;2022-12-10T06:05:59;10.60;;;5.90;;
12425;SDS011;6277;49.824;9.562;2022-12-10T06:08:25;22.85;;;11.52;;
12425;SDS011;6277;49.824;9.562;2022-12-10T06:10:50;20.35;;;11.35;;
12425;SDS011;6277;49.824;9.562;2022-12-10T06:13:16;16.67;;;9.63;;
12425;SDS011;6277;49.824;9.562;2022-12-10T06:15:41;15.25;;;8.38;;
12425;SDS011;6277;49.824;9.562;2022-12-10T06:18:07;12.27;;;7.35;;
12425;SDS011;6277;49.824;9.562;2022-12-10T06:20:33;9.95;;;6.38;;
12425;SDS011;6277;49.824;9.562;2022-12-10T06:22:59;9.20;;;6.20;;
12425;SDS011;6277;49.824;9.562;2022-12-10T06:25:24;8.20;;;5.63;;
12425;SDS011;6277;49.824;9.562;2022-12-10T06:27:50;8.38;;;4.97;;
12425;SDS011;6277;49.824;9.562;2022-12-10T06:30:15;8.30;;;5.55;;
12425;SDS011;6277;49.824;9.562;2022-12-10T06:32:41;6.95;;;4.70;;
12425;SDS011;6277;49.824;9.562;2022-12-10T06:35:10;6.85;;;4.72;;
12425;SDS011;6277;49.824;9.562;2022-12-10T06:37:35;7.07;;;4.75;;
12425;SDS011;6277;49.824;9.562;2022-12-10T06:40:02;6.45;;;4.53;;
12425;SDS011;6277;49.824;9.562;2022-12-10T06:42:28;6.25;;;4.32;;
12425;SDS011;6277;49.824;9.562;2022-12-10T06:44:53;7.13;;;4.75;;
12425;SDS011;6277;49.824;9.562;2022-12-10T06:47:19;5.82;;;4.30;;
12425;SDS011;6277;49.824;9.562;2022-12-10T06:49:44;5.55;;;4.35;;
12425;SDS011;6277;49.824;9.562;2022-12-10T06:52:10;5.80;;;4.20;;
12425;SDS011;6277;49.824;9.562;2022-12-10T06:54:35;6.53;;;5.05;;
12425;SDS011;6277;49.824;9.562;2022-12-10T06:57:01;7.03;;;4.53;;
12425;SDS011;6277;49.824;9.562;2022-12-10T06:59:27;7.20;;;4.72;;
12425;SDS011;6277;49.824;9.562;2022-12-10T07:01:52;6.55;;;4.88;;
12425;SDS011;6277;49.824;9.562;2022-12-10T07:04:18;8.60;;;6.10;;
12425;SDS011;6277;49.824;9.562;2022-12-10T07:06:43;8.43;;;6.25;;
12425;SDS011;6277;49.824;9.562;2022-12-10T07:09:09;22.10;;;13.05;;
12425;SDS011;6277;49.824;9.562;2022-12-10T07:11:35;16.75;;;10.18;;
12425;SDS011;6277;49.824;9.562;2022-12-10T07:14:01;12.27;;;7.45;;
12425;SDS011;6277;49.824;9.562;2022-12-10T07:16:28;9.60;;;6.75;;
12425;SDS011;6277;49.824;9.562;2022-12-10T07:18:55;8.65;;;6.13;;
12425;SDS011;6277;49.824;9.562;2022-12-10T07:21:23;9.43;;;6.07;;
12425;SDS011;6277;49.824;9.562;2022-12-10T07:23:51;7.95;;;5.43;;
12425;SDS011;6277;49.824;9.562;2022-12-10T07:26:18;8.80;;;6.35;;
12425;SDS011;6277;49.824;9.562;2022-12-10T07:28:44;11.73;;;7.45;;
12425;SDS011;6277;49.824;9.562;2022-12-10T07:31:10;10.93;;;7.53;;
12425;SDS011;6277;49.824;9.562;2022-12-10T07:33:36;11.15;;;7.85;;
12425;SDS011;6277;49.824;9.562;2022-12-10T07:36:05;10.68;;;7.10;;
12425;SDS011;6277;49.824;9.562;2022-12-10T07:38:32;8.65;;;5.95;;
12425;SDS011;6277;49.824;9.562;2022-12-10T07:41:01;8.82;;;6.05;;
12425;SDS011;6277;49.824;9.562;2022-12-10T07:43:28;10.70;;;6.30;;
12425;SDS011;6277;49.824;9.562;2022-12-10T07:45:54;10.02;;;6.28;;
12425;SDS011;6277;49.824;9.562;2022-12-10T07:48:20;9.55;;;6.65;;
12425;SDS011;6277;49.824;9.562;2022-12-10T07:50:45;10.30;;;6.55;;
12425;SDS011;6277;49.824;9.562;2022-12-10T07:53:11;7.82;;;5.68;;
12425;SDS011;6277;49.824;9.562;2022-12-10T07:55:36;9.27;;;6.47;;
12425;SDS011;6277;49.824;9.562;2022-12-10T07:58:02;9.40;;;5.70;;
12425;SDS011;6277;49.824;9.562;2022-12-10T08:00:28;8.27;;;6.22;;
12425;SDS011;6277;49.824;9.562;2022-12-10T08:02:54;9.48;;;6.03;;
12425;SDS011;6277;49.824;9.562;2022-12-10T08:05:19;10.45;;;6.32;;
12425;SDS011;6277;49.824;9.562;2022-12-10T08:07:45;9.13;;;5.93;;
12425;SDS011;6277;49.824;9.562;2022-12-10T08:10:10;8.95;;;6.22;;
12425;SDS011;6277;49.824;9.562;2022-12-10T08:12:36;8.40;;;5.63;;
12425;SDS011;6277;49.824;9.562;2022-12-10T08:15:02;7.78;;;5.68;;
12425;SDS011;6277;49.824;9.562;2022-12-10T08:17:27;9.27;;;5.70;;
12425;SDS011;6277;49.824;9.562;2022-12-10T08:19:53;7.57;;;5.60;;
12425;SDS011;6277;49.824;9.562;2022-12-10T08:22:19;7.78;;;5.25;;
12425;SDS011;6277;49.824;9.562;2022-12-10T08:24:45;7.88;;;5.25;;
12425;SDS011;6277;49.824;9.562;2022-12-10T08:27:11;7.55;;;5.38;;
12425;SDS011;6277;49.824;9.562;2022-12-10T08:29:37;7.45;;;5.45;;
12425;SDS011;6277;49.824;9.562;2022-12-10T08:32:02;8.43;;;5.70;;
12425;SDS011;6277;49.824;9.562;2022-12-10T08:34:28;8.55;;;5.53;;
12425;SDS011;6277;49.824;9.562;2022-12-10T08:36:53;7.97;;;5.97;;
12425;SDS011;6277;49.824;9.562;2022-12-10T08:39:19;7.60;;;5.30;;
12425;SDS011;6277;49.824;9.562;2022-12-10T08:41:45;8.13;;;5.90;;
12425;SDS011;6277;49.824;9.562;2022-12-10T08:44:11;8.23;;;6.00;;
12425;SDS011;6277;49.824;9.562;2022-12-10T08:46:37;8.23;;;6.32;;
12425;SDS011;6277;49.824;9.562;2022-12-10T08:49:03;8.70;;;6.60;;
12425;SDS011;6277;49.824;9.562;2022-12-10T08:51:29;9.45;;;6.68;;
12425;SDS011;6277;49.824;9.562;2022-12-10T08:53:55;9.63;;;6.45;;
12425;SDS011;6277;49.824;9.562;2022-12-10T08:56:21;11.63;;;7.43;;
12425;SDS011;6277;49.824;9.562;2022-12-10T08:58:46;12.13;;;7.82;;
12425;SDS011;6277;49.824;9.562;2022-12-10T09:01:13;10.02;;;7.65;;
12425;SDS011;6277;49.824;9.562;2022-12-10T09:03:40;11.50;;;7.72;;
12425;SDS011;6277;49.824;9.562;2022-12-10T09:06:09;11.90;;;7.95;;
12425;SDS011;6277;49.824;9.562;2022-12-10T09:08:37;9.50;;;6.97;;
12425;SDS011;6277;49.824;9.562;2022-12-10T09:13:31;13.10;;;7.53;;
12425;SDS011;6277;49.824;9.562;2022-12-10T09:15:57;10.70;;;7.35;;
12425;SDS011;6277;49.824;9.562;2022-12-10T09:18:22;11.60;;;7.47;;
12425;SDS011;6277;49.824;9.562;2022-12-10T09:20:48;11.45;;;8.40;;
12425;SDS011;6277;49.824;9.562;2022-12-10T09:23:13;12.05;;;8.32;;
12425;SDS011;6277;49.824;9.562;2022-12-10T09:25:39;12.10;;;8.50;;
12425;SDS011;6277;49.824;9.562;2022-12-10T09:28:04;12.50;;;8.32;;
12425;SDS011;6277;49.824;9.562;2022-12-10T09:30:30;12.68;;;8.82;;
12425;SDS011;6277;49.824;9.562;2022-12-10T09:32:55;15.30;;;10.25;;
12425;SDS011;6277;49.824;9.562;2022-12-10T09:35:21;17.58;;;10.70;;
12425;SDS011;6277;49.824;9.562;2022-12-10T09:37:46;15.15;;;10.90;;
12425;SDS011;6277;49.824;9.562;2022-12-10T09:40:16;12.02;;;8.55;;
12425;SDS011;6277;49.824;9.562;2022-12-10T09:42:55;15.18;;;9.30;;
12425;SDS011;6277;49.824;9.562;2022-12-10T09:45:40;11.35;;;7.57;;
12425;SDS011;6277;49.824;9.562;2022-12-10T09:53:32;11.02;;;7.05;;
12425;SDS011;6277;49.824;9.562;2022-12-10T09:56:00;10.98;;;7.10;;
12425;SDS011;6277;49.824;9.562;2022-12-10T09:58:26;10.63;;;7.25;;
12425;SDS011;6277;49.824;9.562;2022-12-10T10:00:57;12.43;;;8.75;;
12425;SDS011;6277;49.824;9.562;2022-12-10T10:03:25;13.70;;;8.65;;
12425;SDS011;6277;49.824;9.562;2022-12-10T10:05:52;12.00;;;8.30;;
12425;SDS011;6277;49.824;9.562;2022-12-10T10:08:29;12.43;;;9.30;;
12425;SDS011;6277;49.824;9.562;2022-12-10T10:10:59;11.27;;;8.15;;
12425;SDS011;6277;49.824;9.562;2022-12-10T10:13:34;11.93;;;8.27;;
12425;SDS011;6277;49.824;9.562;2022-12-10T10:19:05;11.60;;;7.63;;
12425;SDS011;6277;49.824;9.562;2022-12-10T10:21:46;12.13;;;7.68;;
12425;SDS011;6277;49.824;9.562;2022-12-10T10:24:16;11.82;;;8.68;;
12425;SDS011;6277;49.824;9.562;2022-12-10T10:26:47;10.95;;;7.40;;
12425;SDS011;6277;49.824;9.562;2022-12-10T10:29:16;11.23;;;7.40;;
12425;SDS011;6277;49.824;9.562;2022-12-10T10:31:45;11.10;;;7.53;;
12425;SDS011;6277;49.824;9.562;2022-12-10T10:34:20;10.68;;;7.32;;
12425;SDS011;6277;49.824;9.562;2022-12-10T10:36:47;10.38;;;7.82;;
12425;SDS011;6277;49.824;9.562;2022-12-10T10:39:29;11.77;;;7.82;;
12425;SDS011;6277;49.824;9.562;2022-12-10T10:41:57;10.63;;;7.88;;
12425;SDS011;6277;49.824;9.562;2022-12-10T10:44:25;10.48;;;7.60;;
12425;SDS011;6277;49.824;9.562;2022-12-10T10:46:58;10.50;;;7.82;;
12425;SDS011;6277;49.824;9.562;2022-12-10T10:49:27;10.90;;;7.88;;
12425;SDS011;6277;49.824;9.562;2022-12-10T10:52:04;10.50;;;7.68;;
12425;SDS011;6277;49.824;9.562;2022-12-10T10:57:02;13.95;;;8.75;;
12425;SDS011;6277;49.824;9.562;2022-12-10T10:59:32;13.32;;;9.07;;
12425;SDS011;6277;49.824;9.562;2022-12-10T11:02:04;14.88;;;9.77;;
12425;SDS011;6277;49.824;9.562;2022-12-10T11:04:52;17.80;;;11.38;;
12425;SDS011;6277;49.824;9.562;2022-12-10T11:09:47;12.25;;;8.65;;
12425;SDS011;6277;49.824;9.562;2022-12-10T11:12:21;11.27;;;8.45;;
12425;SDS011;6277;49.824;9.562;2022-12-10T11:14:53;11.07;;;8.18;;
12425;SDS011;6277;49.824;9.562;2022-12-10T11:17:21;9.80;;;7.75;;
12425;SDS011;6277;49.824;9.562;2022-12-10T11:19:57;9.63;;;7.10;;
12425;SDS011;6277;49.824;9.562;2022-12-10T11:22:28;9.45;;;6.90;;
12425;SDS011;6277;49.824;9.562;2022-12-10T11:24:55;9.00;;;6.60;;
12425;SDS011;6277;49.824;9.562;2022-12-10T11:27:25;9.13;;;7.15;;
12425;SDS011;6277;49.824;9.562;2022-12-10T11:30:04;10.50;;;7.07;;
12425;SDS011;6277;49.824;9.562;2022-12-10T11:32:37;10.15;;;7.03;;
12425;SDS011;6277;49.824;9.562;2022-12-10T11:35:39;10.30;;;7.20;;
12425;SDS011;6277;49.824;9.562;2022-12-10T11:38:27;9.40;;;7.10;;
12425;SDS011;6277;49.824;9.562;2022-12-10T11:41:18;10.02;;;7.25;;
12425;SDS011;6277;49.824;9.562;2022-12-10T11:44:10;10.30;;;7.75;;
12425;SDS011;6277;49.824;9.562;2022-12-10T11:47:05;11.57;;;8.18;;
12425;SDS011;6277;49.824;9.562;2022-12-10T11:49:39;10.33;;;7.57;;
12425;SDS011;6277;49.824;9.562;2022-12-10T12:07:01;12.13;;;8.68;;
12425;SDS011;6277;49.824;9.562;2022-12-10T12:15:30;10.43;;;7.65;;
12425;SDS011;6277;49.824;9.562;2022-12-10T12:20:57;10.10;;;7.82;;
12425;SDS011;6277;49.824;9.562;2022-12-10T12:26:06;10.20;;;7.72;;
12425;SDS011;6277;49.824;9.562;2022-12-10T12:28:48;9.70;;;6.93;;
12425;SDS011;6277;49.824;9.562;2022-12-10T12:31:22;10.85;;;7.47;;
12425;SDS011;6277;49.824;9.562;2022-12-10T12:36:40;10.48;;;7.65;;
12425;SDS011;6277;49.824;9.562;2022-12-10T12:50:03;12.38;;;9.10;;
12425;SDS011;6277;49.824;9.562;2022-12-10T12:52:37;13.45;;;9.57;;
12425;SDS011;6277;49.824;9.562;2022-12-10T13:00:40;14.48;;;9.93;;
12425;SDS011;6277;49.824;9.562;2022-12-10T13:05:54;15.00;;;10.35;;
12425;SDS011;6277;49.824;9.562;2022-12-10T13:15:49;16.20;;;9.70;;
12425;SDS011;6277;49.824;9.562;2022-12-10T13:20:47;10.85;;;8.10;;
12425;SDS011;6277;49.824;9.562;2022-12-10T13:28:28;10.07;;;6.95;;
12425;SDS011;6277;49.824;9.562;2022-12-10T13:36:33;9.70;;;6.68;;
12425;SDS011;6277;49.824;9.562;2022-12-10T13:41:30;9.38;;;6.28;;
12425;SDS011;6277;49.824;9.562;2022-12-10T13:47:00;8.57;;;6.18;;
12425;SDS011;6277;49.824;9.562;2022-12-10T13:49:52;9.85;;;6.18;;
12425;SDS011;6277;49.824;9.562;2022-12-10T13:53:03;9.77;;;6.55;;
12425;SDS011;6277;49.824;9.562;2022-12-10T13:58:24;10.88;;;6.93;;
12425;SDS011;6277;49.824;9.562;2022-12-10T14:01:02;9.65;;;7.22;;
12425;SDS011;6277;49.824;9.562;2022-12-10T14:04:03;11.20;;;7.60;;
12425;SDS011;6277;49.824;9.562;2022-12-10T14:06:43;9.93;;;7.13;;
12425;SDS011;6277;49.824;9.562;2022-12-10T14:11:47;13.57;;;9.32;;
12425;SDS011;6277;49.824;9.562;2022-12-10T14:14:23;14.85;;;10.18;;
12425;SDS011;6277;49.824;9.562;2022-12-10T14:16:55;16.27;;;10.38;;
12425;SDS011;6277;49.824;9.562;2022-12-10T14:19:21;18.55;;;12.18;;
12425;SDS011;6277;49.824;9.562;2022-12-10T14:21:51;15.07;;;10.13;;
12425;SDS011;6277;49.824;9.562;2022-12-10T14:24:27;16.58;;;11.15;;
12425;SDS011;6277;49.824;9.562;2022-12-10T14:27:03;17.48;;;11.75;;
12425;SDS011;6277;49.824;9.562;2022-12-10T14:29:46;17.42;;;11.02;;
12425;SDS011;6277;49.824;9.562;2022-12-10T14:32:14;18.50;;;12.27;;
12425;SDS011;6277;49.824;9.562;2022-12-10T14:34:46;18.70;;;12.13;;
12425;SDS011;6277;49.824;9.562;2022-12-10T14:37:17;17.73;;;12.48;;
12425;SDS011;6277;49.824;9.562;2022-12-10T14:39:48;19.38;;;12.68;;
12425;SDS011;6277;49.824;9.562;2022-12-10T14:42:14;20.17;;;12.85;;
12425;SDS011;6277;49.824;9.562;2022-12-10T14:44:42;20.85;;;13.98;;
12425;SDS011;6277;49.824;9.562;2022-12-10T14:47:14;21.33;;;13.45;;
12425;SDS011;6277;49.824;9.562;2022-12-10T14:49:43;19.70;;;12.88;;
12425;SDS011;6277;49.824;9.562;2022-12-10T14:52:15;18.77;;;12.60;;
12425;SDS011;6277;49.824;9.562;2022-12-10T14:54:43;21.00;;;13.20;;
12425;SDS011;6277;49.824;9.562;2022-12-10T14:57:29;19.08;;;12.00;;
12425;SDS011;6277;49.824;9.562;2022-12-10T15:00:13;16.33;;;10.95;;
12425;SDS011;6277;49.824;9.562;2022-12-10T15:02:42;16.73;;;11.18;;
12425;SDS011;6277;49.824;9.562;2022-12-10T15:05:20;15.63;;;10.32;;
12425;SDS011;6277;49.824;9.562;2022-12-10T15:07:59;14.35;;;9.68;;
12425;SDS011;6277;49.824;9.562;2022-12-10T15:10:38;14.93;;;9.63;;
12425;SDS011;6277;49.824;9.562;2022-12-10T15:13:06;14.25;;;9.43;;
12425;SDS011;6277;49.824;9.562;2022-12-10T15:15:42;14.23;;;9.05;;
12425;SDS011;6277;49.824;9.562;2022-12-10T15:18:15;13.48;;;9.40;;
12425;SDS011;6277;49.824;9.562;2022-12-10T15:23:17;13.57;;;8.85;;
12425;SDS011;6277;49.824;9.562;2022-12-10T15:28:39;13.87;;;8.30;;
12425;SDS011;6277;49.824;9.562;2022-12-10T15:33:53;11.55;;;8.05;;
12425;SDS011;6277;49.824;9.562;2022-12-10T15:36:40;13.05;;;8.27;;
12425;SDS011;6277;49.824;9.562;2022-12-10T15:41:43;12.40;;;8.35;;
12425;SDS011;6277;49.824;9.562;2022-12-10T15:47:05;10.57;;;7.18;;
12425;SDS011;6277;49.824;9.562;2022-12-10T15:49:33;12.20;;;6.57;;
12425;SDS011;6277;49.824;9.562;2022-12-10T15:51:59;10.85;;;7.45;;
12425;SDS011;6277;49.824;9.562;2022-12-10T15:54:32;11.35;;;7.40;;
12425;SDS011;6277;49.824;9.562;2022-12-10T15:57:06;11.43;;;7.05;;
12425;SDS011;6277;49.824;9.562;2022-12-10T15:59:41;13.45;;;8.25;;
12425;SDS011;6277;49.824;9.562;2022-12-10T16:02:27;12.65;;;7.80;;
12425;SDS011;6277;49.824;9.562;2022-12-10T16:04:56;12.70;;;7.82;;
12425;SDS011;6277;49.824;9.562;2022-12-10T16:07:21;10.63;;;7.22;;
12425;SDS011;6277;49.824;9.562;2022-12-10T16:09:47;11.80;;;7.35;;
12425;SDS011;6277;49.824;9.562;2022-12-10T16:12:13;10.23;;;7.00;;
12425;SDS011;6277;49.824;9.562;2022-12-10T16:14:41;10.27;;;6.78;;
12425;SDS011;6277;49.824;9.562;2022-12-10T16:17:13;11.45;;;7.90;;
12425;SDS011;6277;49.824;9.562;2022-12-10T16:19:39;11.73;;;8.07;;
12425;SDS011;6277;49.824;9.562;2022-12-10T16:22:05;12.70;;;8.57;;
12425;SDS011;6277;49.824;9.562;2022-12-10T16:24:30;12.27;;;7.60;;
12425;SDS011;6277;49.824;9.562;2022-12-10T16:26:56;11.57;;;7.30;;
12425;SDS011;6277;49.824;9.562;2022-12-10T16:29:22;14.15;;;8.02;;
12425;SDS011;6277;49.824;9.562;2022-12-10T16:31:48;10.77;;;7.60;;
12425;SDS011;6277;49.824;9.562;2022-12-10T16:34:14;9.45;;;6.75;;
12425;SDS011;6277;49.824;9.562;2022-12-10T16:36:39;11.77;;;7.00;;
12425;SDS011;6277;49.824;9.562;2022-12-10T16:39:05;8.55;;;6.00;;
12425;SDS011;6277;49.824;9.562;2022-12-10T16:41:30;9.40;;;6.25;;
12425;SDS011;6277;49.824;9.562;2022-12-10T16:43:56;9.18;;;5.93;;
12425;SDS011;6277;49.824;9.562;2022-12-10T16:46:22;7.57;;;5.20;;
12425;SDS011;6277;49.824;9.562;2022-12-10T16:48:48;8.27;;;5.55;;
12425;SDS011;6277;49.824;9.562;2022-12-10T16:51:15;8.65;;;5.97;;
12425;SDS011;6277;49.824;9.562;2022-12-10T16:53:50;8.80;;;5.15;;
12425;SDS011;6277;49.824;9.562;2022-12-10T16:56:16;7.18;;;5.13;;
12425;SDS011;6277;49.824;9.562;2022-12-10T16:58:43;7.28;;;5.05;;
12425;SDS011;6277;49.824;9.562;2022-12-10T17:03:46;8.88;;;5.75;;
12425;SDS011;6277;49.824;9.562;2022-12-10T17:06:12;8.75;;;5.60;;
12425;SDS011;6277;49.824;9.562;2022-12-10T17:08:38;8.57;;;5.88;;
12425;SDS011;6277;49.824;9.562;2022-12-10T17:11:10;8.65;;;6.18;;